Time;durP1;ratioP1;P1;durP2;ratioP2;P2;SDS_P1;SDS_P2;PMS_P1;PMS_P2;Temp;Humidity;BMP_temperature;BMP_pressure;BME280_temperature;BME280_humidity;BME280_pressure;Samples;Min_cycle;Max_cycle;Signal;HPM_P1;HPM_P2
2021/03/26 00:01:44;;;;;;;0.70;0.40;;;21.70;39.10;;;;;;5038585;28;20033;-81
2021/03/26 00:04:12;;;;;;;0.60;0.30;;;21.70;39.10;;;;;;5017863;28;20071;-80
2021/03/26 00:06:41;;;;;;;1.40;0.60;;;21.70;39.10;;;;;;5052060;28;20032;-80
2021/03/26 00:09:10;;;;;;;1.63;0.40;;;21.70;39.10;;;;;;5053499;28;20059;-79
2021/03/26 00:11:35;;;;;;;1.10;0.50;;;21.70;39.00;;;;;;5022879;28;20124;-79
2021/03/26 00:14:02;;;;;;;0.60;0.30;;;21.60;39.00;;;;;;5037198;28;20496;-80
2021/03/26 00:16:28;;;;;;;0.93;0.40;;;21.70;39.00;;;;;;5063362;28;20028;-78
2021/03/26 00:18:54;;;;;;;0.75;0.30;;;21.60;39.00;;;;;;5022795;28;20040;-78
2021/03/26 00:21:21;;;;;;;1.00;0.35;;;21.60;39.00;;;;;;5060933;28;20531;-79
2021/03/26 00:23:48;;;;;;;1.15;0.40;;;21.60;39.00;;;;;;5048222;28;20042;-79
2021/03/26 00:26:13;;;;;;;2.13;0.38;;;21.60;39.10;;;;;;5014767;28;20324;-80
2021/03/26 00:28:39;;;;;;;0.75;0.35;;;21.60;39.10;;;;;;5038523;28;20029;-79
2021/03/26 00:31:05;;;;;;;0.80;0.43;;;21.60;39.10;;;;;;5028067;28;20063;-79
2021/03/26 00:33:31;;;;;;;0.80;0.30;;;21.60;39.10;;;;;;5042065;28;20039;-78
2021/03/26 00:35:57;;;;;;;1.42;0.40;;;21.60;39.10;;;;;;5038886;28;20103;-78
2021/03/26 00:38:24;;;;;;;0.57;0.38;;;21.60;39.10;;;;;;5045951;28;20028;-81
2021/03/26 00:40:50;;;;;;;0.90;0.40;;;21.60;39.10;;;;;;5020769;28;20064;-78
2021/03/26 00:43:16;;;;;;;1.15;0.45;;;21.60;39.10;;;;;;5039225;28;20439;-78
2021/03/26 00:45:42;;;;;;;2.00;0.40;;;21.60;39.10;;;;;;5042787;28;20021;-80
2021/03/26 00:48:09;;;;;;;0.75;0.45;;;21.60;39.10;;;;;;5037716;28;20025;-78
2021/03/26 00:50:43;;;;;;;1.15;0.50;;;21.50;39.10;;;;;;5040748;28;20116;-81
2021/03/26 00:53:13;;;;;;;1.00;0.50;;;21.50;39.10;;;;;;5024023;28;20025;-79
2021/03/26 00:55:39;;;;;;;0.90;0.40;;;21.50;39.10;;;;;;5023677;28;20020;-80
2021/03/26 00:58:05;;;;;;;0.85;0.35;;;21.50;39.10;;;;;;5057444;28;20069;-80
2021/03/26 01:00:32;;;;;;;1.17;0.40;;;21.50;39.10;;;;;;5056588;28;20118;-79
2021/03/26 01:02:59;;;;;;;0.60;0.30;;;21.50;39.10;;;;;;5052379;28;20025;-80
2021/03/26 01:05:31;;;;;;;0.85;0.30;;;21.50;39.10;;;;;;5019971;28;20083;-80
2021/03/26 01:07:57;;;;;;;0.82;0.30;;;21.50;39.10;;;;;;5062440;28;20040;-81
2021/03/26 01:10:28;;;;;;;1.73;0.45;;;21.50;39.10;;;;;;5020183;28;20028;-81
2021/03/26 01:12:54;;;;;;;0.90;0.40;;;21.50;39.10;;;;;;5024989;28;20493;-79
2021/03/26 01:15:22;;;;;;;0.52;0.32;;;21.50;39.20;;;;;;5027617;28;20028;-80
2021/03/26 01:17:50;;;;;;;1.10;0.63;;;21.50;39.10;;;;;;5046093;28;20424;-80
2021/03/26 01:20:20;;;;;;;0.50;0.30;;;21.40;39.10;;;;;;5037803;28;20017;-80
2021/03/26 01:22:46;;;;;;;0.60;0.30;;;21.50;39.20;;;;;;5040740;28;20031;-79
2021/03/26 01:25:21;;;;;;;1.02;0.30;;;21.40;39.10;;;;;;5037886;28;20033;-79
2021/03/26 01:27:48;;;;;;;1.42;0.50;;;21.40;39.10;;;;;;5045520;28;20055;-80
2021/03/26 01:30:17;;;;;;;1.48;0.30;;;21.40;39.20;;;;;;5037244;28;20456;-78
2021/03/26 01:32:43;;;;;;;1.00;0.38;;;21.40;39.10;;;;;;5046333;28;20048;-78
2021/03/26 01:35:10;;;;;;;0.90;0.30;;;21.40;39.10;;;;;;5040306;28;20033;-78
2021/03/26 01:37:36;;;;;;;1.33;0.60;;;21.40;39.10;;;;;;5054227;28;20064;-79
2021/03/26 01:40:08;;;;;;;0.52;0.25;;;21.40;39.10;;;;;;5074224;28;20046;-79
2021/03/26 01:42:36;;;;;;;1.33;0.43;;;21.40;39.10;;;;;;5076193;28;20032;-79
2021/03/26 01:45:08;;;;;;;1.23;0.40;;;21.40;39.10;;;;;;5063028;28;20155;-79
2021/03/26 01:47:34;;;;;;;1.17;0.63;;;21.40;39.10;;;;;;5023894;28;20127;-79
2021/03/26 01:50:00;;;;;;;0.90;0.38;;;21.40;39.10;;;;;;5057489;28;20028;-80
2021/03/26 01:52:26;;;;;;;1.33;0.68;;;21.40;39.10;;;;;;5031909;28;20029;-80
2021/03/26 01:54:51;;;;;;;0.60;0.30;;;21.40;39.10;;;;;;5050309;28;20025;-81
2021/03/26 01:57:17;;;;;;;1.30;0.20;;;21.40;39.10;;;;;;5040298;28;20037;-79
2021/03/26 01:59:43;;;;;;;0.82;0.38;;;21.40;39.20;;;;;;5025045;28;20615;-79
2021/03/26 02:02:17;;;;;;;1.50;0.30;;;21.40;39.10;;;;;;5021888;28;20440;-81
2021/03/26 02:04:47;;;;;;;0.65;0.30;;;21.40;39.20;;;;;;5025047;28;20143;-80
2021/03/26 02:07:15;;;;;;;1.27;0.30;;;21.30;39.30;;;;;;5016031;28;20025;-78
2021/03/26 02:09:42;;;;;;;1.17;0.30;;;21.30;39.10;;;;;;5039503;28;20025;-78
2021/03/26 02:12:10;;;;;;;1.40;0.47;;;21.30;39.10;;;;;;5045348;28;20029;-80
2021/03/26 02:14:44;;;;;;;0.82;0.40;;;21.30;39.10;;;;;;5076466;28;20021;-78
2021/03/26 02:17:15;;;;;;;1.15;0.30;;;21.30;39.10;;;;;;5051325;28;20051;-79
2021/03/26 02:19:47;;;;;;;0.80;0.50;;;21.30;39.10;;;;;;5034293;28;20017;-78
2021/03/26 02:22:14;;;;;;;0.80;0.40;;;21.30;39.10;;;;;;5079971;28;20024;-80
2021/03/26 02:24:42;;;;;;;0.80;0.35;;;21.30;39.10;;;;;;5038175;28;20020;-77
2021/03/26 02:27:15;;;;;;;0.90;0.40;;;21.30;39.10;;;;;;5035071;28;20025;-79
2021/03/26 02:29:41;;;;;;;0.93;0.43;;;21.30;39.10;;;;;;5055916;28;20039;-77
2021/03/26 02:32:22;;;;;;;0.70;0.30;;;21.30;39.10;;;;;;5059497;28;20025;-78
2021/03/26 02:35:07;;;;;;;0.95;0.45;;;21.30;39.20;;;;;;5055720;28;20020;-80
2021/03/26 02:37:34;;;;;;;1.13;0.32;;;21.30;39.10;;;;;;5044924;28;20039;-79
2021/03/26 02:40:00;;;;;;;0.88;0.50;;;21.20;39.10;;;;;;5025967;28;20033;-80
2021/03/26 02:42:30;;;;;;;1.30;0.40;;;21.30;39.10;;;;;;5048613;28;20055;-80
2021/03/26 02:45:18;;;;;;;0.90;0.43;;;21.30;39.10;;;;;;5037381;28;20056;-80
2021/03/26 02:47:56;;;;;;;1.08;0.30;;;21.20;39.10;;;;;;5054840;28;20060;-79
2021/03/26 02:50:48;;;;;;;0.68;0.32;;;21.20;39.10;;;;;;5039818;28;20081;-80
2021/03/26 02:53:17;;;;;;;1.17;0.50;;;21.20;39.10;;;;;;5063926;28;20032;-79
2021/03/26 02:56:27;;;;;;;0.80;0.22;;;21.20;39.10;;;;;;5054583;28;20032;-80
2021/03/26 02:59:06;;;;;;;0.80;0.43;;;21.20;39.10;;;;;;5018534;28;20041;-80
2021/03/26 03:01:40;;;;;;;0.88;0.40;;;21.20;39.10;;;;;;5054210;28;20052;-79
2021/03/26 03:04:12;;;;;;;0.70;0.50;;;21.20;39.10;;;;;;5038801;28;20032;-79
2021/03/26 03:06:44;;;;;;;0.93;0.47;;;21.20;39.10;;;;;;5057855;28;20717;-79
2021/03/26 03:09:13;;;;;;;0.80;0.47;;;21.20;39.10;;;;;;5039686;28;20065;-78
2021/03/26 03:11:47;;;;;;;1.88;0.57;;;21.20;39.00;;;;;;5061710;28;20056;-79
2021/03/26 03:14:27;;;;;;;1.13;0.40;;;21.20;39.10;;;;;;5030878;28;20021;-78
2021/03/26 03:17:17;;;;;;;0.82;0.30;;;21.20;39.10;;;;;;5049901;28;20060;-78
2021/03/26 03:20:13;;;;;;;1.08;0.60;;;21.10;39.10;;;;;;5060730;28;20048;-79
2021/03/26 03:22:51;;;;;;;0.95;0.30;;;21.20;39.10;;;;;;5050417;28;20020;-79
2021/03/26 03:25:20;;;;;;;1.20;0.50;;;21.10;39.00;;;;;;5024886;28;20051;-78
2021/03/26 03:27:52;;;;;;;0.93;0.50;;;21.10;39.30;;;;;;5031163;28;20055;-80
2021/03/26 03:30:33;;;;;;;1.17;0.50;;;21.10;39.00;;;;;;5066517;28;20105;-80
2021/03/26 03:33:03;;;;;;;0.60;0.30;;;21.10;39.00;;;;;;5043585;28;20106;-80
2021/03/26 03:35:42;;;;;;;1.50;0.60;;;21.10;39.10;;;;;;5055577;28;20031;-79
2021/03/26 03:38:24;;;;;;;0.73;0.40;;;21.10;39.00;;;;;;5039910;28;20032;-80
2021/03/26 03:40:54;;;;;;;1.33;0.50;;;21.10;39.00;;;;;;5062984;28;20027;-79
2021/03/26 03:43:33;;;;;;;2.47;0.50;;;21.10;39.10;;;;;;5046172;28;20074;-81
2021/03/26 03:46:25;;;;;;;0.77;0.32;;;21.10;39.10;;;;;;5043877;28;20077;-80
2021/03/26 03:48:56;;;;;;;0.68;0.28;;;21.10;39.10;;;;;;5045271;28;20405;-80
2021/03/26 03:51:27;;;;;;;0.90;0.50;;;21.10;39.10;;;;;;5027303;28;20035;-80
2021/03/26 03:53:59;;;;;;;0.70;0.20;;;21.10;39.10;;;;;;5028221;28;20036;-80
2021/03/26 03:56:42;;;;;;;1.00;0.55;;;21.10;39.60;;;;;;5027822;28;20024;-79
2021/03/26 03:59:21;;;;;;;1.00;0.50;;;21.10;39.10;;;;;;5027958;28;20040;-80
2021/03/26 04:01:54;;;;;;;0.70;0.30;;;21.00;39.10;;;;;;5043462;28;20326;-80
2021/03/26 04:04:39;;;;;;;1.73;0.60;;;21.10;39.10;;;;;;5044297;28;20374;-79
2021/03/26 04:07:13;;;;;;;1.20;0.40;;;21.10;39.10;;;;;;5043680;28;20052;-78
2021/03/26 04:09:46;;;;;;;0.82;0.30;;;21.00;39.10;;;;;;5046015;28;20043;-79
2021/03/26 04:12:13;;;;;;;;;;;21.00;39.10;;;;;;5026141;28;20197;-79
2021/03/26 04:15:23;;;;;;;1.02;0.38;;;21.00;39.10;;;;;;5027251;28;19912;-79
2021/03/26 04:18:08;;;;;;;0.80;0.40;;;21.00;39.10;;;;;;5028746;28;20075;-78
2021/03/26 04:20:51;;;;;;;1.05;0.40;;;21.00;39.10;;;;;;5027739;28;20032;-79
2021/03/26 04:23:32;;;;;;;0.80;0.40;;;21.00;39.10;;;;;;5040612;28;20030;-77
2021/03/26 04:26:24;;;;;;;1.73;0.55;;;21.00;39.00;;;;;;5042027;28;20033;-80
2021/03/26 04:28:54;;;;;;;;;;;21.00;39.10;;;;;;5041086;28;20032;-79
2021/03/26 04:31:27;;;;;;;0.90;0.40;;;21.00;39.10;;;;;;5028439;28;19912;-79
2021/03/26 04:33:54;;;;;;;0.90;0.35;;;21.00;39.10;;;;;;5042789;28;20112;-78
2021/03/26 04:36:26;;;;;;;0.93;0.40;;;21.00;39.10;;;;;;5042183;28;20028;-79
2021/03/26 04:39:32;;;;;;;2.40;0.50;;;21.00;39.10;;;;;;5045688;28;20027;-79
2021/03/26 04:42:26;;;;;;;0.80;0.40;;;21.00;39.10;;;;;;5020199;28;20033;-79
2021/03/26 04:45:01;;;;;;;0.98;0.45;;;21.00;39.10;;;;;;5046292;28;20036;-79
2021/03/26 04:47:32;;;;;;;0.93;0.30;;;21.00;39.10;;;;;;5048497;28;20033;-79
2021/03/26 04:50:05;;;;;;;1.27;0.30;;;21.00;39.10;;;;;;5046273;28;20057;-79
2021/03/26 04:52:43;;;;;;;1.25;0.47;;;20.90;39.10;;;;;;5062459;28;20040;-79
2021/03/26 04:55:10;;;;;;;0.93;0.40;;;20.90;39.10;;;;;;5045154;28;20033;-78
2021/03/26 04:58:01;;;;;;;0.70;0.30;;;20.90;39.10;;;;;;5067818;28;20032;-78
2021/03/26 05:00:36;;;;;;;0.98;0.30;;;20.90;39.10;;;;;;5035449;28;20032;-79
2021/03/26 05:03:28;;;;;;;1.02;0.60;;;21.00;39.10;;;;;;5047187;28;20079;-78
2021/03/26 05:05:59;;;;;;;2.00;0.50;;;20.90;39.60;;;;;;5029264;28;20041;-78
2021/03/26 05:08:26;;;;;;;1.40;0.40;;;20.90;39.10;;;;;;5044539;28;20112;-78
2021/03/26 05:10:54;;;;;;;2.70;0.40;;;20.90;39.10;;;;;;5033202;28;20032;-78
2021/03/26 05:13:35;;;;;;;0.80;0.30;;;20.90;39.10;;;;;;5030665;28;20059;-79
2021/03/26 05:16:05;;;;;;;1.55;0.50;;;20.90;39.10;;;;;;5044902;28;20111;-80
2021/03/26 05:18:42;;;;;;;0.82;0.40;;;20.90;39.10;;;;;;5067772;28;20024;-79
2021/03/26 05:21:13;;;;;;;1.27;0.50;;;20.90;39.10;;;;;;5063631;28;20106;-79
2021/03/26 05:23:57;;;;;;;1.20;0.50;;;20.90;39.10;;;;;;5044314;28;20028;-80
2021/03/26 05:26:24;;;;;;;2.58;0.50;;;20.90;39.10;;;;;;5030683;28;20131;-80
2021/03/26 05:28:49;;;;;;;0.80;0.40;;;20.90;39.10;;;;;;5044799;28;20024;-80
2021/03/26 05:31:43;;;;;;;1.17;0.60;;;20.90;39.10;;;;;;5045892;28;20031;-79
2021/03/26 05:34:18;;;;;;;0.80;0.40;;;20.90;39.10;;;;;;5029744;28;20021;-79
2021/03/26 05:36:55;;;;;;;2.65;0.50;;;20.90;39.20;;;;;;5046540;28;20478;-79
2021/03/26 05:39:28;;;;;;;0.63;0.40;;;20.90;39.10;;;;;;5043169;28;20389;-79
2021/03/26 05:42:30;;;;;;;0.82;0.52;;;20.90;39.10;;;;;;5043701;28;20037;-78
2021/03/26 05:45:26;;;;;;;0.98;0.47;;;20.90;39.10;;;;;;5025086;28;20120;-78
2021/03/26 05:48:14;;;;;;;0.80;0.50;;;20.90;39.10;;;;;;5044593;28;20036;-79
2021/03/26 05:50:54;;;;;;;1.30;0.45;;;20.90;39.20;;;;;;5041419;28;20034;-79
2021/03/26 05:53:27;;;;;;;1.20;0.40;;;20.80;39.10;;;;;;5041615;28;20066;-78
2021/03/26 05:56:13;;;;;;;0.80;0.45;;;20.90;39.10;;;;;;5044402;28;20071;-79
2021/03/26 05:59:02;;;;;;;0.68;0.40;;;20.80;39.10;;;;;;5042534;28;20033;-79
2021/03/26 06:02:05;;;;;;;1.05;0.63;;;20.80;39.10;;;;;;5047387;28;20072;-77
2021/03/26 06:05:15;;;;;;;0.88;0.52;;;20.80;39.20;;;;;;5059312;28;20021;-78
2021/03/26 06:07:53;;;;;;;1.17;0.60;;;20.80;39.30;;;;;;5050583;28;20028;-80
2021/03/26 06:10:47;;;;;;;1.17;0.50;;;20.80;39.40;;;;;;5052337;28;20051;-79
2021/03/26 06:13:50;;;;;;;0.95;0.50;;;20.80;39.40;;;;;;5039376;28;20029;-78
2021/03/26 06:16:27;;;;;;;0.95;0.40;;;20.80;39.40;;;;;;5035405;28;20025;-78
2021/03/26 06:19:33;;;;;;;1.67;0.82;;;20.80;39.40;;;;;;5037348;28;20476;-80
2021/03/26 06:22:18;;;;;;;0.93;0.50;;;20.80;39.40;;;;;;5041974;28;20028;-79
2021/03/26 06:25:19;;;;;;;2.28;0.63;;;20.80;39.30;;;;;;5053778;28;20045;-77
2021/03/26 06:28:05;;;;;;;1.77;0.57;;;20.80;39.30;;;;;;5041561;28;20049;-78
2021/03/26 06:30:52;;;;;;;2.50;0.98;;;20.80;39.30;;;;;;5038665;28;20504;-79
2021/03/26 06:33:54;;;;;;;2.28;1.08;;;20.80;39.30;;;;;;5036852;28;20056;-78
2021/03/26 06:36:42;;;;;;;3.05;1.17;;;20.80;39.30;;;;;;5061421;28;20033;-79
2021/03/26 06:39:29;;;;;;;2.58;0.60;;;20.80;39.20;;;;;;5051952;28;20096;-78
2021/03/26 06:42:32;;;;;;;1.35;0.60;;;20.80;39.30;;;;;;5031901;28;20060;-77
2021/03/26 06:45:35;;;;;;;1.58;0.85;;;20.90;39.20;;;;;;5031196;28;20021;-78
2021/03/26 06:48:06;;;;;;;2.95;1.15;;;21.00;39.00;;;;;;5032026;28;20086;-77
2021/03/26 06:50:41;;;;;;;2.20;0.90;;;21.20;38.80;;;;;;5033628;28;20109;-79
2021/03/26 06:53:06;;;;;;;3.03;0.73;;;21.30;38.50;;;;;;5056446;28;20028;-79
2021/03/26 06:56:09;;;;;;;1.98;0.80;;;21.40;38.30;;;;;;5057841;28;20053;-79
2021/03/26 06:58:56;;;;;;;2.05;0.90;;;21.50;38.20;;;;;;5035263;28;20059;-77
2021/03/26 07:01:38;;;;;;;1.27;0.63;;;21.60;38.00;;;;;;5053600;28;20021;-80
2021/03/26 07:04:31;;;;;;;1.42;0.70;;;21.70;37.90;;;;;;5042377;28;20036;-81
2021/03/26 07:07:31;;;;;;;1.15;0.57;;;21.80;37.90;;;;;;5037956;28;20050;-81
2021/03/26 07:10:19;;;;;;;2.88;0.68;;;21.80;37.80;;;;;;5023656;28;20025;-80
2021/03/26 07:13:18;;;;;;;1.38;0.68;;;21.90;37.90;;;;;;5032513;28;20108;-83
2021/03/26 07:16:00;;;;;;;1.45;0.73;;;21.90;37.80;;;;;;5039038;28;20028;-82
2021/03/26 07:18:44;;;;;;;2.90;0.88;;;21.90;37.70;;;;;;5029846;28;20024;-80
2021/03/26 07:21:21;;;;;;;0.80;0.70;;;22.00;37.70;;;;;;5055606;28;20027;-81
2021/03/26 07:23:47;;;;;;;2.03;0.40;;;22.00;37.70;;;;;;5025347;28;20025;-82
2021/03/26 07:26:35;;;;;;;1.00;0.70;;;22.10;37.70;;;;;;5019676;28;20626;-80
2021/03/26 07:29:29;;;;;;;1.02;0.43;;;22.10;37.70;;;;;;5042328;28;20112;-80
2021/03/26 07:32:16;;;;;;;3.17;0.50;;;22.20;37.70;;;;;;5022374;28;20060;-82
2021/03/26 07:34:58;;;;;;;1.75;0.70;;;22.20;37.70;;;;;;5051548;28;20085;-82
2021/03/26 07:37:59;;;;;;;1.45;0.52;;;22.20;37.70;;;;;;5028083;28;20977;-81
2021/03/26 07:40:39;;;;;;;1.05;0.60;;;22.20;37.80;;;;;;5047361;28;20028;-80
2021/03/26 07:43:24;;;;;;;0.73;0.38;;;22.20;37.80;;;;;;5026000;28;20100;-78
2021/03/26 07:46:04;;;;;;;1.08;0.50;;;22.20;37.80;;;;;;5045334;28;20009;-80
2021/03/26 07:48:38;;;;;;;1.27;0.40;;;22.20;37.90;;;;;;5038843;28;20017;-80
2021/03/26 07:51:16;;;;;;;1.23;0.60;;;22.20;37.90;;;;;;5043808;28;20024;-80
2021/03/26 07:53:59;;;;;;;1.85;0.50;;;22.20;37.90;;;;;;5054291;28;20029;-80
2021/03/26 07:56:43;;;;;;;0.63;0.30;;;22.20;38.00;;;;;;5068207;28;20025;-78
2021/03/26 07:59:36;;;;;;;1.00;0.50;;;22.20;38.00;;;;;;5067260;28;20048;-78
2021/03/26 08:02:19;;;;;;;1.05;0.50;;;22.20;38.00;;;;;;5075038;28;20035;-79
2021/03/26 08:05:05;;;;;;;1.02;0.40;;;22.20;38.00;;;;;;5036283;28;20039;-80
2021/03/26 08:08:12;;;;;;;1.73;0.43;;;22.20;38.10;;;;;;5041749;28;20029;-82
2021/03/26 08:10:38;;;;;;;0.85;0.47;;;22.20;38.10;;;;;;5051682;28;20029;-82
2021/03/26 08:13:47;;;;;;;1.02;0.50;;;22.20;38.20;;;;;;5029310;28;20033;-80
2021/03/26 08:16:41;;;;;;;1.23;0.52;;;22.10;38.10;;;;;;5008342;28;20039;-81
2021/03/26 08:19:19;;;;;;;1.15;0.50;;;22.10;38.20;;;;;;5016557;28;20029;-80
2021/03/26 08:22:01;;;;;;;0.90;0.52;;;22.10;38.70;;;;;;5022583;28;20794;-80
2021/03/26 08:25:01;;;;;;;0.90;0.57;;;22.10;38.20;;;;;;5018859;28;20091;-80
2021/03/26 08:27:55;;;;;;;1.15;0.30;;;22.10;38.20;;;;;;5005009;28;20033;-80
2021/03/26 08:30:46;;;;;;;0.95;0.40;;;22.10;38.30;;;;;;5006881;28;21723;-80
2021/03/26 08:33:31;;;;;;;;;;;22.10;38.30;;;;;;5032590;28;20048;-80
2021/03/26 08:36:18;;;;;;;1.20;0.35;;;22.10;38.30;;;;;;5030775;28;19917;-80
2021/03/26 08:39:10;;;;;;;0.70;0.40;;;22.10;38.30;;;;;;5051664;28;20509;-80
2021/03/26 08:41:40;;;;;;;1.17;0.40;;;22.10;38.40;;;;;;5028622;28;20083;-81
2021/03/26 08:44:06;;;;;;;1.33;0.52;;;22.10;38.30;;;;;;5017186;28;20049;-82
2021/03/26 08:46:39;;;;;;;0.75;0.50;;;22.10;38.30;;;;;;5019718;28;20037;-79
2021/03/26 08:49:23;;;;;;;2.47;0.60;;;22.10;38.30;;;;;;5053909;28;20021;-80
2021/03/26 08:52:19;;;;;;;0.88;0.40;;;22.10;38.30;;;;;;5063446;28;20039;-80
2021/03/26 08:55:03;;;;;;;1.10;0.40;;;22.10;38.40;;;;;;5036622;28;20118;-79
2021/03/26 08:57:38;;;;;;;0.80;0.40;;;22.10;39.00;;;;;;5042427;28;20027;-78
2021/03/26 09:00:03;;;;;;;0.98;0.30;;;22.00;39.00;;;;;;5031495;28;20524;-81
2021/03/26 09:03:20;;;;;;;1.17;0.70;;;22.10;38.50;;;;;;5054227;28;20108;-78
2021/03/26 09:06:23;;;;;;;2.25;0.40;;;22.10;38.50;;;;;;4987591;28;20041;-79
2021/03/26 09:09:44;;;;;;;1.40;0.40;;;22.10;38.40;;;;;;5050790;28;20059;-79
2021/03/26 09:12:22;;;;;;;0.80;0.50;;;;;;;;;;4973671;28;20060;-77
2021/03/26 09:14:52;;;;;;;2.25;0.60;;;;;;;;;;5021181;28;21025;-80
2021/03/26 09:17:33;;;;;;;1.90;0.60;;;22.30;65.90;;;;;;5039877;28;20096;-80
2021/03/26 09:20:01;;;;;;;1.23;0.43;;;22.40;64.70;;;;;;5033998;28;20031;-80
2021/03/26 09:22:48;;;;;;;1.42;0.70;;;22.40;63.80;;;;;;5017055;28;20040;-80
2021/03/26 09:25:24;;;;;;;0.95;0.32;;;22.40;62.60;;;;;;5045127;28;20025;-81
2021/03/26 09:28:05;;;;;;;1.95;0.47;;;22.30;61.80;;;;;;5054597;28;20041;-81
2021/03/26 09:31:01;;;;;;;0.70;0.40;;;22.30;58.10;;;;;;5016101;28;20033;-80
2021/03/26 09:33:27;;;;;;;1.55;0.40;;;22.30;57.50;;;;;;5019393;28;20710;-79
2021/03/26 09:36:00;;;;;;;0.77;0.38;;;22.30;57.20;;;;;;5035629;28;20043;-80
2021/03/26 09:38:42;;;;;;;0.90;0.50;;;22.30;57.10;;;;;;5053058;28;20033;-83
2021/03/26 09:41:32;;;;;;;0.82;0.50;;;22.30;57.00;;;;;;5054424;28;20980;-81
2021/03/26 09:44:19;;;;;;;0.98;0.60;;;22.40;57.00;;;;;;5047804;28;20510;-81
2021/03/26 09:47:11;;;;;;;2.05;0.68;;;22.40;56.80;;;;;;5029436;28;20443;-81
2021/03/26 09:49:37;;;;;;;0.52;0.30;;;22.40;57.30;;;;;;5024919;28;20048;-80
2021/03/26 09:52:31;;;;;;;1.13;0.50;;;22.40;56.70;;;;;;5029253;28;20112;-80
2021/03/26 09:55:20;;;;;;;0.57;0.40;;;22.40;56.70;;;;;;5048129;28;20107;-83
2021/03/26 09:57:55;;;;;;;0.77;0.38;;;22.40;56.70;;;;;;5050196;28;20040;-81
2021/03/26 10:00:58;;;;;;;0.98;0.38;;;22.40;56.60;;;;;;5039441;28;20116;-81
2021/03/26 10:03:39;;;;;;;;;;;22.40;56.70;;;;;;5039645;28;20033;-80
2021/03/26 10:06:26;;;;;;;0.60;0.30;;;22.40;56.80;;;;;;5005787;28;20007;-80
2021/03/26 10:11:32;;;;;;;0.95;0.40;;;22.50;56.50;;;;;;5036609;28;20033;-80
2021/03/26 10:14:03;;;;;;;0.93;0.40;;;22.50;56.30;;;;;;5023315;28;20500;-80
2021/03/26 10:16:38;;;;;;;0.90;0.35;;;22.50;56.40;;;;;;5010973;28;20096;-80
2021/03/26 10:19:10;;;;;;;0.68;0.30;;;22.50;56.20;;;;;;5037812;28;20025;-80
2021/03/26 10:21:46;;;;;;;0.55;0.22;;;22.50;56.20;;;;;;5037954;28;20028;-81
2021/03/26 10:24:25;;;;;;;1.52;0.40;;;22.50;56.20;;;;;;5032076;28;20147;-80
2021/03/26 10:27:08;;;;;;;0.75;0.20;;;22.50;56.30;;;;;;5036442;28;20062;-83
2021/03/26 10:29:42;;;;;;;1.33;0.30;;;22.50;56.20;;;;;;5010827;28;20078;-80
2021/03/26 10:32:24;;;;;;;1.02;0.40;;;22.50;56.20;;;;;;5059221;28;20094;-80
2021/03/26 10:34:52;;;;;;;1.95;0.40;;;22.50;56.20;;;;;;5000248;28;21037;-80
2021/03/26 10:37:44;;;;;;;0.85;0.30;;;22.60;56.20;;;;;;5052223;28;20052;-80
2021/03/26 10:40:28;;;;;;;0.70;0.30;;;22.50;56.20;;;;;;5032571;28;20029;-80
2021/03/26 10:43:34;;;;;;;0.70;0.30;;;22.50;56.20;;;;;;5042372;28;20021;-81
2021/03/26 10:46:29;;;;;;;0.77;0.22;;;22.50;56.20;;;;;;5034758;28;20029;-81
2021/03/26 10:49:03;;;;;;;1.25;0.30;;;22.50;56.10;;;;;;5048522;28;20035;-83
2021/03/26 10:51:42;;;;;;;0.70;0.30;;;22.50;56.10;;;;;;5026163;28;20029;-83
2021/03/26 10:54:26;;;;;;;0.73;0.30;;;22.50;56.10;;;;;;5038824;28;20032;-85
2021/03/26 10:57:17;;;;;;;2.70;0.40;;;22.50;56.10;;;;;;5033518;28;20025;-85
2021/03/26 10:59:52;;;;;;;0.82;0.38;;;22.50;56.10;;;;;;5047068;28;20037;-84
2021/03/26 11:02:28;;;;;;;0.82;0.30;;;22.50;56.10;;;;;;5016631;28;20029;-83
2021/03/26 11:05:18;;;;;;;1.27;0.30;;;22.50;56.10;;;;;;5036845;28;20118;-85
2021/03/26 11:07:51;;;;;;;1.02;0.60;;;22.50;56.10;;;;;;5002097;28;20096;-84
2021/03/26 11:10:22;;;;;;;1.85;0.50;;;22.60;56.20;;;;;;5019183;28;20083;-84
2021/03/26 11:12:54;;;;;;;0.77;0.22;;;22.50;56.20;;;;;;5021932;28;20584;-85
2021/03/26 11:15:33;;;;;;;2.05;0.43;;;22.50;56.20;;;;;;5051737;28;20025;-85
2021/03/26 11:18:28;;;;;;;1.85;0.30;;;22.50;56.30;;;;;;5013254;28;20032;-83
2021/03/26 11:21:04;;;;;;;0.90;0.50;;;22.50;56.20;;;;;;5044013;28;20178;-84
2021/03/26 11:23:32;;;;;;;0.93;0.40;;;22.50;56.40;;;;;;5021541;28;20078;-83
2021/03/26 11:26:04;;;;;;;0.88;0.30;;;22.50;56.40;;;;;;5024868;28;20033;-84
2021/03/26 11:28:51;;;;;;;2.55;0.50;;;22.50;56.50;;;;;;5031460;28;20074;-82
2021/03/26 11:31:40;;;;;;;3.58;0.55;;;22.50;56.50;;;;;;5035381;28;20141;-85
2021/03/26 11:34:23;;;;;;;1.30;0.68;;;22.50;56.50;;;;;;5052274;28;20028;-83
2021/03/26 11:36:50;;;;;;;2.05;0.35;;;22.50;56.40;;;;;;5050428;28;20402;-84
2021/03/26 11:39:22;;;;;;;2.25;0.50;;;22.50;56.30;;;;;;5036753;28;20691;-85
2021/03/26 11:41:54;;;;;;;2.85;0.70;;;22.50;56.20;;;;;;5007766;28;20036;-85
2021/03/26 11:44:25;;;;;;;2.58;0.60;;;22.60;56.30;;;;;;5031186;28;20092;-84
2021/03/26 11:46:55;;;;;;;2.10;0.50;;;22.60;56.40;;;;;;5032342;28;20035;-85
2021/03/26 11:49:28;;;;;;;1.27;0.75;;;22.60;56.40;;;;;;5026660;28;20044;-83
2021/03/26 11:52:05;;;;;;;2.08;0.80;;;22.60;56.30;;;;;;5027156;28;20071;-82
2021/03/26 11:54:49;;;;;;;2.90;0.60;;;22.60;56.30;;;;;;5011070;28;20366;-84
2021/03/26 11:57:37;;;;;;;1.23;0.63;;;22.60;56.30;;;;;;5032711;28;20024;-83
2021/03/26 12:00:12;;;;;;;3.88;0.57;;;22.60;56.30;;;;;;5027197;28;20017;-84
2021/03/26 12:02:43;;;;;;;1.55;0.65;;;22.60;56.30;;;;;;5052477;28;20058;-84
2021/03/26 12:05:39;;;;;;;0.93;0.50;;;22.60;56.20;;;;;;5021558;28;20023;-84
2021/03/26 12:08:11;;;;;;;2.67;0.60;;;22.60;56.30;;;;;;5047678;28;20045;-84
2021/03/26 12:10:43;;;;;;;4.10;0.50;;;22.60;56.40;;;;;;5036563;28;20033;-84
2021/03/26 12:13:41;;;;;;;1.75;0.40;;;22.60;56.40;;;;;;5045806;28;20037;-84
2021/03/26 12:16:21;;;;;;;2.75;1.00;;;22.70;56.40;;;;;;5040707;28;20025;-84
2021/03/26 12:19:05;;;;;;;2.03;0.70;;;22.70;56.40;;;;;;5044415;28;20040;-84
2021/03/26 12:21:40;;;;;;;2.97;0.57;;;22.60;56.40;;;;;;5021313;28;20060;-84
2021/03/26 12:24:46;;;;;;;1.77;0.52;;;22.60;56.40;;;;;;5035800;28;20055;-84
2021/03/26 12:27:33;;;;;;;2.88;0.40;;;22.60;56.40;;;;;;5030993;28;20025;-84
2021/03/26 12:30:05;;;;;;;1.23;0.50;;;22.60;56.50;;;;;;5020403;28;20044;-84
2021/03/26 12:32:39;;;;;;;;;;;22.60;56.30;;;;;;5045099;28;20028;-85
2021/03/26 12:35:23;;;;;;;2.80;0.35;;;22.60;56.30;;;;;;5032368;28;19999;-85
2021/03/26 12:38:08;;;;;;;3.38;0.40;;;22.60;56.40;;;;;;5040567;28;20021;-85
2021/03/26 12:40:46;;;;;;;1.13;0.40;;;22.60;56.30;;;;;;5043668;28;20388;-84
2021/03/26 12:43:30;;;;;;;3.38;0.47;;;22.60;56.30;;;;;;5027173;28;20045;-84
2021/03/26 12:46:11;;;;;;;1.65;0.30;;;22.60;56.20;;;;;;5044613;28;20033;-84
2021/03/26 12:48:39;;;;;;;1.33;0.20;;;22.60;56.30;;;;;;5027568;28;20021;-85
2021/03/26 12:51:48;;;;;;;1.67;0.28;;;22.60;56.30;;;;;;5031234;28;20051;-84
2021/03/26 12:54:20;;;;;;;1.70;0.30;;;22.70;56.30;;;;;;5011655;28;20029;-84
2021/03/26 12:56:56;;;;;;;1.08;0.32;;;22.70;56.30;;;;;;5036058;28;20029;-84
2021/03/26 12:59:40;;;;;;;0.80;0.25;;;22.60;56.40;;;;;;5036728;28;20027;-84
2021/03/26 13:02:40;;;;;;;1.40;0.50;;;22.70;56.30;;;;;;5073111;28;20090;-84
2021/03/26 13:05:20;;;;;;;1.67;0.40;;;22.70;56.50;;;;;;5065435;28;20071;-83
2021/03/26 13:08:12;;;;;;;0.88;0.30;;;22.70;56.40;;;;;;5030526;28;20512;-85
2021/03/26 13:11:05;;;;;;;0.80;0.38;;;22.70;56.50;;;;;;5031365;28;20373;-84
2021/03/26 13:14:03;;;;;;;0.80;0.30;;;22.70;56.50;;;;;;5032434;28;20047;-84
2021/03/26 13:16:52;;;;;;;2.10;0.20;;;22.70;56.40;;;;;;5019917;28;20029;-83
2021/03/26 13:19:21;;;;;;;2.38;0.35;;;22.70;56.40;;;;;;5025708;28;20059;-82
2021/03/26 13:22:12;;;;;;;0.80;0.28;;;22.70;56.50;;;;;;5041437;28;20020;-84
2021/03/26 13:24:55;;;;;;;0.82;0.30;;;22.70;56.50;;;;;;5044897;28;20042;-83
2021/03/26 13:27:20;;;;;;;1.42;0.30;;;22.70;56.40;;;;;;5018877;28;20036;-84
2021/03/26 13:29:58;;;;;;;1.90;0.30;;;22.70;56.50;;;;;;5017311;28;20040;-83
2021/03/26 13:32:28;;;;;;;1.35;0.40;;;22.70;56.50;;;;;;5055741;28;20120;-83
2021/03/26 13:34:59;;;;;;;2.42;0.38;;;22.70;56.60;;;;;;5056832;28;20025;-83
2021/03/26 13:37:31;;;;;;;1.75;0.40;;;22.70;56.60;;;;;;5019638;28;20037;-84
2021/03/26 13:40:17;;;;;;;0.80;0.30;;;22.60;56.50;;;;;;5035947;28;20025;-84
2021/03/26 13:43:00;;;;;;;1.52;0.30;;;22.70;56.60;;;;;;5038111;28;20036;-84
2021/03/26 13:45:27;;;;;;;0.50;0.17;;;22.70;56.70;;;;;;5063399;28;20020;-84
2021/03/26 13:48:01;;;;;;;0.70;0.22;;;22.70;56.60;;;;;;5053005;28;20544;-84
2021/03/26 13:50:41;;;;;;;0.60;0.20;;;22.70;56.60;;;;;;5050326;28;20086;-83
2021/03/26 13:53:44;;;;;;;1.52;0.30;;;22.70;56.60;;;;;;5031579;28;20013;-82